createdAt,value
2018-10-03T00:01:33.294Z,18.96
2018-10-03T00:04:03.442Z,18.93
2018-10-03T00:06:33.435Z,18.96
2018-10-03T00:09:03.395Z,18.96
2018-10-03T00:11:34.432Z,18.94
2018-10-03T00:14:04.298Z,18.93
2018-10-03T00:16:34.465Z,18.90
2018-10-03T00:19:05.275Z,18.92
2018-10-03T00:21:35.041Z,18.91
2018-10-03T00:24:05.356Z,18.90
2018-10-03T00:26:35.617Z,18.88
2018-10-03T00:29:05.771Z,18.86
2018-10-03T00:31:35.534Z,18.87
2018-10-03T00:34:05.750Z,18.87
2018-10-03T00:36:36.250Z,18.83
2018-10-03T00:39:08.195Z,18.82
2018-10-03T00:41:38.560Z,18.83
2018-10-03T00:44:08.891Z,18.83
2018-10-03T00:46:39.554Z,18.82
2018-10-03T00:49:10.179Z,18.81
2018-10-03T00:51:40.491Z,18.78
2018-10-03T00:54:10.282Z,18.78
2018-10-03T00:56:40.516Z,18.79
2018-10-03T00:59:11.230Z,18.79
2018-10-03T01:01:40.975Z,18.77
2018-10-03T01:04:10.875Z,18.75
2018-10-03T01:06:40.533Z,18.74
2018-10-03T01:09:10.602Z,18.74
2018-10-03T01:11:40.632Z,18.73
2018-10-03T01:14:10.789Z,18.70
2018-10-03T01:16:40.987Z,18.71
2018-10-03T01:19:10.668Z,18.71
2018-10-03T01:21:40.392Z,18.71
2018-10-03T01:24:10.562Z,18.68
2018-10-03T01:26:41.391Z,18.68
2018-10-03T01:29:11.230Z,18.67
2018-10-03T01:31:41.489Z,18.67
2018-10-03T01:34:11.455Z,18.65
2018-10-03T01:36:41.115Z,18.65
2018-10-03T01:39:11.544Z,18.64
2018-10-03T01:41:41.807Z,18.65
2018-10-03T01:44:12.676Z,18.63
2018-10-03T01:46:42.344Z,18.62
2018-10-03T01:49:12.087Z,18.60
2018-10-03T01:51:41.915Z,18.60
2018-10-03T01:54:11.659Z,18.59
2018-10-03T01:56:41.703Z,18.58
2018-10-03T01:59:11.380Z,18.57
2018-10-03T02:01:41.416Z,18.56
2018-10-03T02:04:11.263Z,18.55
2018-10-03T02:06:41.158Z,18.54
2018-10-03T02:09:11.049Z,18.54
2018-10-03T02:11:40.789Z,18.53
2018-10-03T02:14:10.458Z,18.51
2018-10-03T02:16:41.003Z,18.50
2018-10-03T02:19:10.767Z,18.50
2018-10-03T02:21:40.403Z,18.49
2018-10-03T02:24:10.126Z,18.48
2018-10-03T02:26:40.187Z,18.46
2018-10-03T02:29:10.035Z,18.46
2018-10-03T02:31:40.085Z,18.46
2018-10-03T02:34:09.785Z,18.46
2018-10-03T02:36:39.768Z,18.43
2018-10-03T02:39:10.367Z,18.43
2018-10-03T02:41:40.245Z,18.42
2018-10-03T02:44:09.932Z,18.41
2018-10-03T02:46:39.618Z,18.40
2018-10-03T02:49:09.826Z,18.41
2018-10-03T02:51:39.520Z,18.40
2018-10-03T02:54:09.730Z,18.37
2018-10-03T02:56:39.527Z,18.37
2018-10-03T02:59:09.118Z,18.36
2018-10-03T03:01:39.261Z,18.35
2018-10-03T03:04:08.974Z,18.36
2018-10-03T03:06:38.502Z,18.35
2018-10-03T03:09:13.506Z,18.33
2018-10-03T03:11:43.223Z,18.32
2018-10-03T03:14:12.921Z,18.31
2018-10-03T03:16:42.783Z,18.29
2018-10-03T03:19:13.078Z,18.29
2018-10-03T03:21:43.100Z,18.29
2018-10-03T03:24:13.248Z,18.26
2018-10-03T03:26:42.932Z,18.26
2018-10-03T03:29:12.591Z,18.26
2018-10-03T03:31:42.651Z,18.26
2018-10-03T03:34:12.770Z,18.24
2018-10-03T03:36:42.590Z,18.24
2018-10-03T03:39:12.094Z,18.22
2018-10-03T03:41:42.242Z,18.21
2018-10-03T03:44:11.918Z,18.21
2018-10-03T03:46:41.734Z,18.21
2018-10-03T03:49:12.097Z,18.18
2018-10-03T03:51:41.897Z,18.18
2018-10-03T03:54:11.856Z,18.17
2018-10-03T03:56:42.221Z,18.17
2018-10-03T03:59:12.390Z,18.17
2018-10-03T04:01:42.198Z,18.16
2018-10-03T04:04:11.907Z,18.14
2018-10-03T04:06:41.487Z,18.13
2018-10-03T04:09:12.142Z,18.12
2018-10-03T04:11:41.698Z,18.12
2018-10-03T04:14:11.447Z,18.11
2018-10-03T04:16:40.954Z,18.09
2018-10-03T04:19:11.094Z,18.08
2018-10-03T04:21:41.978Z,18.06
2018-10-03T04:24:12.338Z,18.06
2018-10-03T04:26:42.099Z,18.05
2018-10-03T04:29:12.398Z,18.04
2018-10-03T04:31:43.266Z,18.03
2018-10-03T04:34:12.846Z,18.03
2018-10-03T04:36:42.590Z,18.05
2018-10-03T04:39:12.339Z,18.14
2018-10-03T04:41:42.513Z,18.17
2018-10-03T04:44:12.167Z,18.19
2018-10-03T04:46:41.921Z,18.19
2018-10-03T04:49:11.640Z,18.24
2018-10-03T04:51:41.340Z,18.28
2018-10-03T04:54:11.056Z,18.30
2018-10-03T04:56:40.664Z,18.31
2018-10-03T04:59:10.824Z,18.34
2018-10-03T05:01:40.506Z,18.37
2018-10-03T05:04:10.282Z,18.40
2018-10-03T05:06:40.419Z,18.44
2018-10-03T05:09:10.290Z,18.50
2018-10-03T05:11:39.778Z,18.51
2018-10-03T05:14:09.566Z,18.55
2018-10-03T05:16:39.172Z,18.58
2018-10-03T05:19:08.884Z,18.62
2018-10-03T05:21:39.514Z,18.67
2018-10-03T05:24:09.450Z,18.68
2018-10-03T05:26:39.178Z,18.72
2018-10-03T05:29:09.050Z,18.73
2018-10-03T05:31:38.731Z,18.77
2018-10-03T05:34:08.711Z,18.83
2018-10-03T05:36:39.086Z,18.82
2018-10-03T05:39:11.042Z,18.85
2018-10-03T05:41:41.017Z,18.93
2018-10-03T05:44:11.320Z,18.94
2018-10-03T05:46:41.367Z,18.97
2018-10-03T05:49:10.938Z,19.02
2018-10-03T05:51:40.762Z,19.06
2018-10-03T05:54:11.254Z,19.14
2018-10-03T05:56:41.172Z,19.16
2018-10-03T05:59:11.103Z,19.18
2018-10-03T06:01:41.268Z,19.21
2018-10-03T06:04:11.563Z,19.26
2018-10-03T06:06:41.848Z,19.27
2018-10-03T06:09:13.407Z,19.29
2018-10-03T06:11:44.058Z,19.33
2018-10-03T06:14:14.202Z,19.37
2018-10-03T06:16:44.854Z,19.38
2018-10-03T06:19:14.957Z,19.39
2018-10-03T06:21:45.114Z,19.40
2018-10-03T06:24:15.071Z,19.46
2018-10-03T06:26:45.123Z,19.48
2018-10-03T06:29:15.006Z,19.47
2018-10-03T06:31:44.513Z,19.51
2018-10-03T06:34:14.776Z,19.55
2018-10-03T06:36:45.134Z,19.61
2018-10-03T06:39:15.894Z,19.64
2018-10-03T06:41:45.603Z,19.61
2018-10-03T06:44:15.474Z,19.68
2018-10-03T06:46:45.135Z,19.70
2018-10-03T06:49:15.107Z,19.72
2018-10-03T06:51:45.844Z,19.73
2018-10-03T06:54:16.275Z,19.75
2018-10-03T06:56:46.956Z,19.78
2018-10-03T06:59:17.129Z,19.79
2018-10-03T07:01:48.413Z,19.82
2018-10-03T07:04:19.493Z,19.85
2018-10-03T07:06:49.034Z,19.90
2018-10-03T07:09:19.084Z,19.95
2018-10-03T07:11:48.730Z,19.97
2018-10-03T07:14:19.323Z,19.98
2018-10-03T07:16:49.851Z,19.98
2018-10-03T07:19:19.879Z,20.05
2018-10-03T07:21:50.102Z,20.06
2018-10-03T07:24:20.278Z,20.09
2018-10-03T07:26:51.642Z,20.12
2018-10-03T07:29:21.210Z,20.14
2018-10-03T07:31:51.894Z,20.16
2018-10-03T07:34:21.857Z,20.14
2018-10-03T07:36:51.824Z,20.20
2018-10-03T07:39:21.868Z,20.23
2018-10-03T07:41:52.203Z,20.27
2018-10-03T07:44:22.193Z,20.31
2018-10-03T07:46:52.582Z,20.31
2018-10-03T07:49:22.323Z,20.36
2018-10-03T07:51:52.210Z,20.37
2018-10-03T07:54:22.198Z,20.39
2018-10-03T07:56:52.125Z,20.38
2018-10-03T07:59:22.320Z,20.44
2018-10-03T08:01:52.259Z,20.45
2018-10-03T08:04:22.413Z,20.46
2018-10-03T08:06:52.706Z,20.46
2018-10-03T08:09:23.455Z,20.45
2018-10-03T08:11:53.678Z,20.50
2018-10-03T08:14:24.463Z,20.49
2018-10-03T08:16:55.267Z,20.50
2018-10-03T08:19:25.103Z,20.51
2018-10-03T08:21:56.088Z,20.56
2018-10-03T08:24:27.583Z,20.56
2018-10-03T08:26:57.279Z,20.57
2018-10-03T08:29:28.276Z,20.58
2018-10-03T08:31:59.882Z,20.58
2018-10-03T08:34:30.354Z,20.65
2018-10-03T08:37:00.546Z,20.69
2018-10-03T08:39:30.734Z,20.67
2018-10-03T08:42:01.246Z,20.71
2018-10-03T08:44:31.441Z,20.70
2018-10-03T08:47:01.294Z,20.72
2018-10-03T08:49:31.289Z,20.74
2018-10-03T08:52:01.737Z,20.74
2018-10-03T08:54:33.358Z,20.77
2018-10-03T08:57:03.463Z,20.77
2018-10-03T08:59:35.095Z,20.78
2018-10-03T09:02:05.329Z,20.78
2018-10-03T09:04:35.593Z,20.81
2018-10-03T09:07:06.028Z,20.81
2018-10-03T09:09:36.609Z,20.82
2018-10-03T09:12:06.897Z,20.80
2018-10-03T09:14:36.972Z,20.82
2018-10-03T09:17:10.103Z,20.87
2018-10-03T09:19:40.314Z,20.90
2018-10-03T09:22:10.810Z,20.90
2018-10-03T09:24:41.223Z,21.03
2018-10-03T09:27:12.079Z,21.06
2018-10-03T09:29:42.446Z,21.10
2018-10-03T09:32:12.318Z,21.09
2018-10-03T09:34:42.298Z,21.11
2018-10-03T09:37:12.270Z,21.14
2018-10-03T09:39:42.331Z,21.15
2018-10-03T09:42:13.317Z,21.19
2018-10-03T09:44:43.319Z,21.19
2018-10-03T09:47:13.219Z,21.22
2018-10-03T09:49:43.092Z,21.26
2018-10-03T09:52:12.834Z,21.33
2018-10-03T09:54:42.715Z,21.35
2018-10-03T09:57:13.677Z,21.36
2018-10-03T09:59:43.235Z,21.41
2018-10-03T10:02:13.845Z,21.45
2018-10-03T10:04:44.409Z,21.48
2018-10-03T10:07:14.803Z,21.47
2018-10-03T10:09:45.179Z,21.52
2018-10-03T10:12:15.187Z,21.51
2018-10-03T10:14:45.054Z,21.53
2018-10-03T10:17:15.338Z,21.57
2018-10-03T10:19:45.407Z,21.59
2018-10-03T10:22:15.443Z,21.60
2018-10-03T10:24:45.397Z,21.61
2018-10-03T10:27:15.252Z,21.71
2018-10-03T10:29:45.808Z,21.70
2018-10-03T10:32:17.032Z,21.77
2018-10-03T10:34:47.074Z,21.78
2018-10-03T10:37:17.846Z,21.83
2018-10-03T10:39:48.186Z,21.83
2018-10-03T10:42:19.487Z,21.89
2018-10-03T10:44:51.092Z,21.94
2018-10-03T10:47:21.442Z,21.93
2018-10-03T10:49:53.457Z,21.91
2018-10-03T10:52:29.486Z,21.94
2018-10-03T10:54:59.191Z,22.00
2018-10-03T10:57:29.385Z,22.03
2018-10-03T10:59:59.808Z,22.05
2018-10-03T11:02:30.106Z,22.06
2018-10-03T11:05:00.663Z,22.11
2018-10-03T11:07:31.645Z,22.16
2018-10-03T11:10:03.203Z,22.14
2018-10-03T11:12:33.079Z,22.17
2018-10-03T11:15:03.613Z,22.14
2018-10-03T11:17:33.361Z,22.14
2018-10-03T11:20:03.665Z,22.16
2018-10-03T11:22:34.842Z,22.17
2018-10-03T11:25:05.016Z,22.18
2018-10-03T11:27:35.378Z,22.20
2018-10-03T11:30:06.056Z,22.24
2018-10-03T11:32:36.254Z,22.20
2018-10-03T11:35:06.277Z,22.16
2018-10-03T11:37:36.100Z,22.20
2018-10-03T11:40:06.368Z,22.17
2018-10-03T11:42:37.018Z,22.14
2018-10-03T11:45:08.043Z,22.17
2018-10-03T11:47:40.054Z,22.21
2018-10-03T11:50:12.143Z,22.23
2018-10-03T11:52:44.609Z,22.24
2018-10-03T11:55:14.341Z,22.25
2018-10-03T11:57:44.394Z,22.23
2018-10-03T12:00:14.735Z,22.20
2018-10-03T12:02:45.045Z,22.20
2018-10-03T12:05:16.085Z,22.17
2018-10-03T12:07:45.987Z,22.11
2018-10-03T12:10:16.090Z,22.13
2018-10-03T12:12:47.349Z,22.13
2018-10-03T12:15:17.087Z,22.13
2018-10-03T12:17:47.178Z,22.11
2018-10-03T12:20:17.839Z,22.09
2018-10-03T12:22:48.252Z,22.07
2018-10-03T12:25:18.505Z,22.01
2018-10-03T12:27:48.807Z,22.02
2018-10-03T12:30:19.044Z,22.01
2018-10-03T12:32:49.347Z,21.97
2018-10-03T12:35:24.910Z,21.92
2018-10-03T12:37:59.414Z,21.90
2018-10-03T12:40:29.199Z,21.88
2018-10-03T12:42:59.535Z,21.83
2018-10-03T12:45:30.450Z,21.73
2018-10-03T12:48:00.594Z,21.74
2018-10-03T12:50:30.470Z,21.73
2018-10-03T12:53:00.541Z,21.76
2018-10-03T12:55:30.784Z,21.77
2018-10-03T12:58:01.073Z,21.71
2018-10-03T13:00:32.379Z,21.61
2018-10-03T13:03:03.831Z,21.59
2018-10-03T13:05:33.680Z,21.57
2018-10-03T13:08:03.585Z,21.51
2018-10-03T13:10:38.549Z,21.42
2018-10-03T13:13:09.246Z,21.43
2018-10-03T13:15:40.086Z,21.48
2018-10-03T13:18:13.208Z,21.54
2018-10-03T13:20:44.828Z,21.57
2018-10-03T13:23:17.079Z,21.56
2018-10-03T13:25:47.558Z,21.58
2018-10-03T13:28:18.322Z,21.61
2018-10-03T13:30:48.704Z,21.63
2018-10-03T13:33:18.614Z,21.61
2018-10-03T13:35:49.863Z,21.63
2018-10-03T13:38:20.501Z,21.61
2018-10-03T13:40:51.099Z,21.62
2018-10-03T13:43:21.790Z,21.63
2018-10-03T13:45:51.926Z,21.61
2018-10-03T13:48:24.698Z,21.65
2018-10-03T13:50:56.083Z,21.62
2018-10-03T13:53:27.784Z,21.58
2018-10-03T13:58:20.301Z,21.54
2018-10-03T14:00:51.094Z,21.53
2018-10-03T14:03:22.104Z,21.50
2018-10-03T14:05:52.380Z,21.52
2018-10-03T14:08:22.725Z,21.51
2018-10-03T14:10:53.256Z,21.53
2018-10-03T14:13:23.375Z,21.53
2018-10-03T14:15:53.223Z,21.50
2018-10-03T14:18:24.224Z,21.51
2018-10-03T14:20:53.780Z,21.51
2018-10-03T14:23:24.429Z,21.50
2018-10-03T14:25:55.430Z,21.49
2018-10-03T14:28:25.043Z,21.47
2018-10-03T14:30:55.094Z,21.47
2018-10-03T14:33:25.097Z,21.45
2018-10-03T14:35:55.189Z,21.44
2018-10-03T14:38:24.882Z,21.41
2018-10-03T14:40:55.267Z,21.41
2018-10-03T14:43:25.368Z,21.42
2018-10-03T14:45:55.488Z,21.35
2018-10-03T14:48:26.020Z,21.34
2018-10-03T14:50:57.174Z,21.31
2018-10-03T14:53:27.114Z,21.32
2018-10-03T14:55:57.304Z,21.30
2018-10-03T14:58:27.497Z,21.29
2018-10-03T15:00:57.653Z,21.30
2018-10-03T15:03:28.332Z,21.30
2018-10-03T15:05:59.154Z,21.27
2018-10-03T15:08:29.696Z,21.26
2018-10-03T15:10:59.705Z,21.24
2018-10-03T15:13:29.377Z,21.18
2018-10-03T15:15:59.302Z,21.17
2018-10-03T15:18:29.773Z,21.13
2018-10-03T15:21:00.675Z,21.10
2018-10-03T15:23:31.884Z,21.11
2018-10-03T15:26:01.682Z,21.07
2018-10-03T15:28:31.646Z,21.06
2018-10-03T15:31:01.711Z,21.03
2018-10-03T15:33:31.882Z,21.01
2018-10-03T15:36:02.238Z,20.98
2018-10-03T15:38:33.059Z,20.96
2018-10-03T15:41:03.367Z,20.94
2018-10-03T15:43:35.270Z,20.94
2018-10-03T15:46:06.215Z,20.92
2018-10-03T15:48:42.442Z,20.91
2018-10-03T15:51:12.701Z,20.88
2018-10-03T15:53:42.381Z,20.86
2018-10-03T15:56:13.439Z,20.86
2018-10-03T15:58:43.663Z,20.85
2018-10-03T16:01:14.210Z,20.84
2018-10-03T16:03:44.853Z,20.82
2018-10-03T16:06:15.194Z,20.82
2018-10-03T16:08:47.830Z,20.81
2018-10-03T16:11:17.784Z,20.79
2018-10-03T16:13:49.643Z,20.77
2018-10-03T16:16:20.239Z,20.76
2018-10-03T16:18:53.068Z,20.75
2018-10-03T16:21:22.704Z,20.74
2018-10-03T16:23:53.991Z,20.73
2018-10-03T16:26:24.992Z,20.72
2018-10-03T16:28:55.195Z,20.70
2018-10-03T16:31:26.202Z,20.68
2018-10-03T16:33:56.976Z,20.68
2018-10-03T16:36:28.585Z,20.67
2018-10-03T16:39:02.018Z,20.69
2018-10-03T16:41:32.437Z,20.66
2018-10-03T16:44:04.211Z,20.65
2018-10-03T16:46:35.898Z,20.64
2018-10-03T16:49:08.495Z,20.63
2018-10-03T16:51:42.434Z,20.62
2018-10-03T16:54:15.109Z,20.61
2018-10-03T16:56:46.974Z,20.58
2018-10-03T16:59:17.886Z,20.58
2018-10-03T17:01:47.381Z,20.57
2018-10-03T17:04:17.796Z,20.56
2018-10-03T17:06:48.439Z,20.53
2018-10-03T17:09:20.194Z,20.52
2018-10-03T17:11:50.687Z,20.52
2018-10-03T17:14:39.530Z,20.53
2018-10-03T17:17:11.898Z,20.52
2018-10-03T17:19:42.491Z,20.52
2018-10-03T17:22:12.881Z,20.53
2018-10-03T17:24:42.656Z,20.53
2018-10-03T17:27:13.329Z,20.53
2018-10-03T17:29:47.101Z,20.52
2018-10-03T17:32:17.183Z,20.54
2018-10-03T17:34:47.293Z,20.54
2018-10-03T17:37:18.028Z,20.57
2018-10-03T17:39:48.710Z,20.57
2018-10-03T17:42:18.630Z,20.59
2018-10-03T17:44:48.931Z,20.59
2018-10-03T17:47:18.627Z,20.57
2018-10-03T17:49:49.539Z,20.59
2018-10-03T17:52:21.920Z,20.60
2018-10-03T17:54:52.093Z,20.60
2018-10-03T17:57:21.697Z,20.61
2018-10-03T17:59:51.900Z,20.60
2018-10-03T18:02:22.636Z,20.60
2018-10-03T18:04:52.678Z,20.60
2018-10-03T18:07:22.616Z,20.60
2018-10-03T18:09:55.451Z,20.61
2018-10-03T18:12:25.328Z,20.58
2018-10-03T18:14:56.658Z,20.60
2018-10-03T18:17:28.519Z,20.62
2018-10-03T18:19:59.612Z,20.62
2018-10-03T18:22:31.208Z,20.62
2018-10-03T18:25:02.109Z,20.60
2018-10-03T18:27:32.193Z,20.61
2018-10-03T18:30:04.222Z,20.63
2018-10-03T18:32:35.453Z,20.61
2018-10-03T18:35:05.926Z,20.59
2018-10-03T18:37:36.704Z,20.61
2018-10-03T18:40:06.902Z,20.60
2018-10-03T18:42:38.042Z,20.58
2018-10-03T18:45:08.272Z,20.59
2018-10-03T18:50:35.928Z,20.58
2018-10-03T18:53:06.337Z,20.59
2018-10-03T18:55:37.446Z,20.58
2018-10-03T18:58:08.487Z,20.59
2018-10-03T19:00:39.058Z,20.60
2018-10-03T19:03:12.085Z,20.61
2018-10-03T19:05:43.656Z,20.60
2018-10-03T19:08:14.489Z,20.57
2018-10-03T19:10:45.243Z,20.59
2018-10-03T19:13:15.327Z,20.59
2018-10-03T19:15:45.175Z,20.60
2018-10-03T19:18:16.308Z,20.58
2018-10-03T19:20:46.319Z,20.59
2018-10-03T19:23:17.310Z,20.58
2018-10-03T19:25:48.462Z,20.59
2018-10-03T19:28:20.146Z,20.57
2018-10-03T19:30:50.603Z,20.58
2018-10-03T19:33:24.142Z,20.58
2018-10-03T19:35:54.455Z,20.58
2018-10-03T19:38:25.955Z,20.59
2018-10-03T19:40:56.511Z,20.57
2018-10-03T19:43:28.358Z,20.58
2018-10-03T19:46:00.039Z,20.58
2018-10-03T19:48:31.250Z,20.57
2018-10-03T19:51:01.258Z,20.54
2018-10-03T19:53:34.287Z,20.56
2018-10-03T19:56:05.207Z,20.54
2018-10-03T19:58:35.266Z,20.54
2018-10-03T20:01:06.175Z,20.55
2018-10-03T20:03:36.670Z,20.52
2018-10-03T20:06:07.196Z,20.52
2018-10-03T20:08:37.754Z,20.53
2018-10-03T20:11:08.611Z,20.50
2018-10-03T20:13:39.232Z,20.51
2018-10-03T20:16:12.177Z,20.49
2018-10-03T20:18:43.026Z,20.48
2018-10-03T20:21:13.818Z,20.44
2018-10-03T20:23:46.210Z,20.45
2018-10-03T20:26:16.466Z,20.44
2018-10-03T20:28:47.359Z,20.43
2018-10-03T20:31:17.144Z,20.43
2018-10-03T20:33:47.773Z,20.43
2018-10-03T20:36:19.090Z,20.41
2018-10-03T20:38:49.048Z,20.41
2018-10-03T20:41:19.586Z,20.39
2018-10-03T20:43:49.822Z,20.39
2018-10-03T20:46:21.328Z,20.39
2018-10-03T20:48:51.737Z,20.36
2018-10-03T20:51:23.443Z,20.35
2018-10-03T20:53:53.989Z,20.32
2018-10-03T20:56:24.583Z,20.30
2018-10-03T20:58:55.050Z,20.31
2018-10-03T21:01:25.882Z,20.31
2018-10-03T21:03:56.759Z,20.30
2018-10-03T21:06:26.430Z,20.28
2018-10-03T21:08:56.616Z,20.27
2018-10-03T21:11:26.442Z,20.26
2018-10-03T21:13:57.078Z,20.22
2018-10-03T21:16:27.191Z,20.23
2018-10-03T21:18:57.622Z,20.18
2018-10-03T21:21:27.883Z,20.16
2018-10-03T21:23:57.882Z,20.18
2018-10-03T21:26:27.821Z,20.16
2018-10-03T21:28:58.346Z,20.14
2018-10-03T21:31:28.650Z,20.14
2018-10-03T21:33:59.854Z,20.14
2018-10-03T21:36:30.561Z,20.12
2018-10-03T21:39:00.907Z,20.12
2018-10-03T21:41:30.960Z,20.11
2018-10-03T21:44:01.507Z,20.08
2018-10-03T21:46:31.427Z,20.07
2018-10-03T21:49:01.625Z,20.06
2018-10-03T21:51:32.047Z,20.04
2018-10-03T21:54:03.098Z,20.03
2018-10-03T21:56:33.127Z,19.95
2018-10-03T21:59:03.118Z,19.91
2018-10-03T22:01:32.902Z,19.85
2018-10-03T22:04:03.224Z,19.84
2018-10-03T22:06:32.815Z,19.80
2018-10-03T22:09:03.096Z,19.77
2018-10-03T22:11:32.858Z,19.75
2018-10-03T22:14:03.107Z,19.71
2018-10-03T22:16:32.675Z,19.70
2018-10-03T22:19:03.167Z,19.68
2018-10-03T22:21:34.474Z,19.64
2018-10-03T22:24:05.081Z,19.65
2018-10-03T22:26:36.184Z,19.63
2018-10-03T22:29:06.204Z,19.60
2018-10-03T22:31:36.196Z,19.58
2018-10-03T22:34:06.230Z,19.55
2018-10-03T22:36:36.972Z,19.54
2018-10-03T22:39:09.813Z,19.53
2018-10-03T22:41:39.486Z,19.51
2018-10-03T22:44:09.549Z,19.47
2018-10-03T22:46:39.886Z,19.45
2018-10-03T22:49:11.259Z,19.44
2018-10-03T22:51:41.224Z,19.41
2018-10-03T22:54:11.301Z,19.40
2018-10-03T22:56:42.121Z,19.37
2018-10-03T22:59:12.697Z,19.36
2018-10-03T23:01:42.530Z,19.34
2018-10-03T23:04:12.096Z,19.31
2018-10-03T23:06:41.943Z,19.30
2018-10-03T23:09:11.711Z,19.29
2018-10-03T23:11:42.298Z,19.26
2018-10-03T23:14:12.735Z,19.26
2018-10-03T23:16:42.651Z,19.23
2018-10-03T23:19:12.683Z,19.22
2018-10-03T23:21:42.674Z,19.19
2018-10-03T23:24:13.561Z,19.17
2018-10-03T23:26:43.788Z,19.16
2018-10-03T23:29:14.873Z,19.14
2018-10-03T23:31:45.754Z,19.12
2018-10-03T23:34:16.401Z,19.11
2018-10-03T23:36:46.210Z,19.10
2018-10-03T23:39:15.920Z,19.07
2018-10-03T23:41:45.701Z,19.04
2018-10-03T23:44:17.235Z,19.03
2018-10-03T23:46:47.171Z,19.02
2018-10-03T23:49:17.138Z,19.01
2018-10-03T23:51:46.762Z,18.98
2018-10-03T23:54:16.574Z,18.96
2018-10-03T23:56:46.664Z,18.96
2018-10-03T23:59:17.051Z,18.94
